Latest Weather Observations for Longreach

IDQ60801

Issued at 5:32 pm EST Friday 19 December 2014 (issued every 30 minutes, with the page automatically refreshed every 10 minutes)

About weather observations | Map of weather stations | Latest weather observations for QLD | Other Formats
Station Details ID: 036031 Name: LONGREACH AERO Lat: -23.44 Lon: 144.28 Height: 192.2 m
Data from the previous 72 hours. | See also: Recent months at Longreach
Date/Time
EST
Temp
°C
App
Temp
°C
Dew
Point
Rel
Hum
%
Delta-T
°C
Wind Press
QNH
hPa
Press
MSL
hPa
Rain
since 9 am
mm
Dir
 
Spd
km/h
Gust
km/h
Spd
kts
Gust
kts
19/05:30pm 36.0 31.7 5.1 14 16.8 SE 17 26 9 14 1009.6 - 0.0
19/05:00pm 36.5 33.1 7.5 17 16.4 SE 15 28 8 15 1009.5 - 0.0
19/04:30pm 36.5 31.8 6.2 15 16.8 SSE 20 43 11 23 1009.4 - 0.0
19/04:00pm 37.0 32.6 7.6 16 16.7 SE 20 30 11 16 1009.6 - 0.0
19/03:30pm 36.3 32.5 7.4 17 16.3 ESE 17 30 9 16 1009.9 - 0.0
19/03:00pm 36.1 31.0 6.0 15 16.6 S 22 32 12 17 1010.3 1008.9 0.0
19/02:30pm 36.5 33.3 6.9 16 16.6 S 13 17 7 9 1010.6 - 0.0
19/02:00pm 36.7 31.7 6.3 15 16.9 S 22 35 12 19 1011.0 - 0.0
19/01:30pm 35.4 31.1 7.8 18 15.6 ESE 20 32 11 17 1011.4 - 0.0
19/01:00pm 34.6 30.1 7.1 18 15.3 SSE 20 28 11 15 1011.9 - 0.0
19/12:30pm 34.9 29.7 7.1 18 15.5 SSE 24 39 13 21 1012.3 - 0.0
19/12:00pm 34.7 30.5 8.2 19 15.0 SE 20 26 11 14 1012.7 1011.4 0.0
19/11:30am 34.5 29.9 8.1 19 14.9 ESE 22 35 12 19 1013.1 - 0.0
19/11:00am 32.7 28.7 11.8 28 12.4 SSE 24 41 13 22 1013.5 - 0.0
19/10:30am 31.9 30.5 14.5 34 10.7 SE 15 19 8 10 1013.8 - 0.0
19/09:30am 28.9 27.5 16.9 48 7.6 SSE 20 28 11 15 1014.2 - 0.0
19/09:00am 28.1 26.8 17.2 51 6.9 S 20 28 11 15 1014.2 1012.9 0.0
19/08:30am 27.6 27.4 18.4 57 5.9 S 17 24 9 13 1014.2 - 0.0
19/07:30am 25.0 25.7 18.8 68 4.0 SSW 13 15 7 8 1013.9 - 0.0
19/07:00am 24.2 25.3 18.9 72 3.4 SSW 11 15 6 8 1013.4 - 0.0
19/06:30am 23.1 23.8 18.9 77 2.7 SSW 13 15 7 8 1013.2 - 0.0
19/06:00am 22.9 24.3 18.7 77 2.7 SW 9 11 5 6 1012.9 1011.6 0.0
19/05:30am 23.0 24.3 18.4 75 2.9 SW 9 11 5 6 1012.5 - 0.0
19/05:00am 23.0 24.4 18.6 76 2.8 SSW 9 11 5 6 1012.3 - 0.0
19/04:30am 23.0 24.4 18.6 76 2.8 S 9 11 5 6 1012.0 - 0.0
19/04:00am 22.9 23.9 18.7 77 2.7 SSW 11 13 6 7 1012.2 - 0.0
19/03:30am 23.0 24.0 18.6 76 2.8 SSW 11 13 6 7 1012.2 - 0.0
19/03:00am 22.9 23.8 18.3 75 2.9 SW 11 15 6 8 1012.2 1010.9 0.0
19/02:30am 23.0 26.3 19.1 78 2.5 CALM 0 0 0 0 1012.1 - 0.0
19/02:00am 22.9 24.6 19.3 80 2.3 ESE 9 11 5 6 1012.1 - 0.0
19/01:30am 23.1 23.5 18.9 77 2.7 ESE 15 17 8 9 1011.9 - 0.0
19/01:00am 23.4 23.4 18.2 72 3.3 ESE 15 17 8 9 1012.6 - 0.0
19/12:30am 23.4 23.4 18.0 71 3.4 E 15 19 8 10 1012.9 - 0.0
19/12:00am 23.5 23.4 17.8 70 3.6 E 15 19 8 10 1013.1 1011.8 0.0
 
Date/Time
EST
Temp
°C
App
Temp
°C
Dew
Point
Rel
Hum
%
Delta-T
°C
Wind Press
QNH
hPa
Press
MSL
hPa
Rain
since 9 am
mm
Dir
 
Spd
km/h
Gust
km/h
Spd
kts
Gust
kts
18/11:30pm 23.9 23.6 17.3 66 4.1 ENE 15 19 8 10 1013.3 - 0.0
18/11:00pm 23.7 23.1 17.6 68 3.8 E 17 24 9 13 1013.2 - 0.0
18/10:30pm 23.5 23.8 17.8 70 3.6 E 13 17 7 9 1013.0 - 0.0
18/10:00pm 23.6 23.0 17.5 68 3.8 ESE 17 22 9 12 1013.0 - 0.0
18/09:30pm 23.6 22.6 17.9 70 3.6 SE 20 28 11 15 1012.9 - 0.0
18/09:00pm 23.4 21.7 18.0 71 3.4 SE 24 33 13 18 1012.8 1011.5 0.0
18/08:30pm 23.7 20.6 17.6 68 3.8 SSE 30 39 16 21 1012.7 - 0.0
18/08:00pm 23.7 20.4 18.0 70 3.6 SSE 32 41 17 22 1013.1 - 0.0
18/07:30pm 23.7 20.3 18.2 71 3.5 SSE 33 43 18 23 1013.3 - 0.0
18/07:00pm 23.9 20.1 18.2 70 3.6 S 35 48 19 26 1013.8 - 0.0
18/06:33pm 25.1 21.0 17.3 62 4.9 S 35 56 19 30 1013.9 - 0.0
18/06:30pm 25.2 21.4 17.2 61 5.0 S 33 46 18 25 1013.9 - 0.0
18/06:03pm 26.1 20.5 16.4 55 6.0 SSW 41 59 22 32 1013.2 - 0.0
18/06:00pm 26.1 20.2 16.6 55 5.9 SSW 43 59 23 32 1013.1 1011.8 0.0
18/05:30pm 27.6 21.2 15.8 48 7.3 SSW 44 61 24 33 1011.8 - 0.0
18/05:06pm 29.4 21.5 14.9 41 8.9 SSW 50 69 27 37 1010.8 - 0.0
18/05:00pm 29.9 21.5 14.6 39 9.4 SSW 52 69 28 37 1010.4 - 0.0
18/04:30pm 32.7 23.4 13.0 30 11.9 SSW 54 72 29 39 1008.8 - 0.0
18/04:00pm 35.2 26.0 8.1 19 15.4 SSW 46 65 25 35 1007.3 - 0.0
18/03:36pm 36.5 27.7 9.4 19 15.8 SSW 46 65 25 35 1006.6 - 0.0
18/03:30pm 36.9 28.1 9.5 19 16.0 SSW 46 61 25 33 1006.4 - 0.0
18/03:14pm 38.5 31.6 12.7 21 15.9 SSW 41 61 22 33 1005.7 - 0.0
18/03:00pm 38.0 33.2 15.5 26 14.4 SSW 35 50 19 27 1005.4 1004.0 0.0
18/02:46pm 38.6 34.3 14.3 23 15.3 W 30 48 16 26 1005.6 - 0.0
18/02:30pm 37.9 34.1 14.6 25 14.7 W 28 41 15 22 1006.1 - 0.0
18/02:00pm 37.6 35.0 16.8 29 13.5 WSW 26 41 14 22 1006.8 - 0.0
18/01:30pm 36.7 35.9 17.0 31 12.8 SW 17 28 9 15 1007.5 - 0.0
18/01:00pm 35.8 33.9 16.7 32 12.3 W 22 33 12 18 1007.8 - 0.0
18/12:30pm 36.9 32.6 16.0 29 13.4 W 33 39 18 21 1008.0 - 0.0
18/12:00pm 36.5 33.6 17.1 31 12.6 W 28 39 15 21 1008.5 1007.2 0.0
18/11:30am 35.0 33.1 17.7 36 11.3 WSW 24 32 13 17 1009.1 - 0.0
18/11:04am 35.0 30.8 18.1 36 11.1 WSW 37 46 20 25 1009.3 - 0.0
18/11:00am 35.1 31.6 18.0 36 11.2 WNW 33 44 18 24 1009.4 - 0.0
18/10:30am 35.5 32.5 16.7 32 12.1 WNW 28 37 15 20 1008.8 - 0.0
18/10:00am 36.2 32.3 16.5 31 12.7 NW 32 41 17 22 1008.5 - 0.0
18/09:30am 34.7 31.4 17.0 35 11.4 NNW 30 39 16 21 1008.6 - 0.0
18/09:00am 34.0 30.4 17.1 36 10.9 NNW 32 39 17 21 1008.6 1007.3 0.0
18/08:30am 33.8 30.4 16.8 36 10.9 NNW 30 37 16 20 1008.3 - 0.0
18/08:00am 32.9 29.9 16.8 38 10.3 N 28 35 15 19 1008.1 - 0.0
18/07:30am 30.7 29.3 17.1 44 8.7 N 20 28 11 15 1007.9 - 0.0
18/07:00am 29.1 28.3 17.1 48 7.6 N 17 19 9 10 1007.8 - 0.0
18/06:30am 28.5 27.8 17.3 50 7.1 N 17 19 9 10 1007.6 - 0.0
18/06:00am 28.4 28.8 17.2 50 7.1 N 11 13 6 7 1007.1 1005.8 0.0
18/05:30am 28.4 28.4 17.2 50 7.1 N 13 17 7 9 1006.6 - 0.0
18/05:00am 28.5 28.2 17.3 50 7.1 N 15 19 8 10 1006.1 - 0.0
18/04:30am 28.5 27.2 17.2 50 7.2 N 20 28 11 15 1006.0 - 0.0
18/04:00am 28.2 26.6 17.5 52 6.8 N 22 30 12 16 1005.9 - 0.0
18/03:30am 28.6 25.9 17.5 51 7.1 N 28 37 15 20 1005.8 - 0.0
18/03:00am 28.8 25.1 17.5 50 7.2 N 33 46 18 25 1005.8 1004.4 0.0
18/02:30am 29.3 25.6 17.4 48 7.6 N 33 46 18 25 1006.1 - 0.0
18/02:00am 29.0 25.8 18.5 53 6.8 N 33 41 18 22 1005.8 - 0.0
18/01:30am 28.3 25.5 19.1 57 6.0 N 32 41 17 22 1006.0 - 0.0
18/01:00am 28.5 25.0 18.8 55 6.3 N 35 43 19 23 1005.8 - 0.0
18/12:30am 28.9 25.3 18.6 53 6.7 N 35 41 19 22 1006.2 - 0.0
18/12:00am 29.3 25.5 18.9 53 6.8 N 37 46 20 25 1006.2 1004.8 0.0
 
Date/Time
EST
Temp
°C
App
Temp
°C
Dew
Point
Rel
Hum
%
Delta-T
°C
Wind Press
QNH
hPa
Press
MSL
hPa
Rain
since 9 am
mm
Dir
 
Spd
km/h
Gust
km/h
Spd
kts
Gust
kts
17/11:30pm 29.2 25.3 18.8 53 6.8 N 37 46 20 25 1006.4 - 0.0
17/11:00pm 29.5 25.0 18.2 50 7.3 N 39 52 21 28 1006.8 - 0.0
17/10:30pm 30.5 26.2 17.8 46 8.2 NNE 37 50 20 27 1006.4 - 0.0
17/10:00pm 30.2 26.7 17.8 47 8.0 NNE 33 43 18 23 1006.4 - 0.0
17/09:30pm 29.9 26.8 18.3 49 7.5 NNE 32 39 17 21 1006.3 - 0.0
17/09:00pm 29.3 25.5 18.9 53 6.8 NE 37 48 20 26 1005.6 1004.2 0.0
17/08:30pm 29.9 26.0 18.7 51 7.3 NE 37 52 20 28 1006.1 - 0.0
17/08:00pm 30.4 25.1 19.5 52 7.2 NE 46 56 25 30 1004.2 - 0.0
17/07:50pm 30.6 26.7 19.6 51 7.3 NE 39 57 21 31 1004.1 - 0.0
17/07:30pm 31.0 27.1 19.5 50 7.6 NE 39 52 21 28 1004.2 - 0.0
17/07:02pm 33.7 29.7 17.5 38 10.5 ENE 35 56 19 30 1003.2 - 0.0
17/07:00pm 33.7 30.1 17.7 38 10.4 E 33 46 18 25 1003.3 - 0.0
17/06:30pm 38.6 35.4 13.1 22 15.8 NNW 22 30 12 16 1002.6 - 0.0
17/06:00pm 39.3 35.0 13.1 21 16.3 NNW 28 37 15 20 1002.3 1001.0 0.0
17/05:30pm 40.3 34.9 12.8 19 17.0 NNW 33 41 18 22 1001.7 - 0.0
17/05:00pm 40.0 33.0 12.5 19 16.9 NNW 41 52 22 28 1001.4 - 0.0
17/04:48pm 40.7 36.2 12.5 18 17.4 NNW 28 46 15 25 1001.2 - 0.0
17/04:30pm 42.4 38.1 10.7 15 19.2 WNW 24 33 13 18 1001.2 - 0.0
17/04:00pm 41.4 36.7 10.7 16 18.5 WNW 26 33 14 18 1001.4 - 0.0
17/03:30pm 41.6 34.9 11.1 16 18.5 NW 37 50 20 27 1001.7 - 0.0
17/03:00pm 42.6 38.0 11.0 15 19.3 WNW 26 56 14 30 1002.2 1000.9 0.0
17/02:36pm 42.8 37.8 10.9 15 19.4 WSW 28 54 15 29 1002.1 - 0.0
17/02:30pm 42.5 37.2 10.0 14 19.5 W 28 43 15 23 1002.2 - 0.0
17/02:00pm 42.3 37.2 10.5 15 19.2 WNW 28 43 15 23 1002.6 - 0.0
17/01:46pm 43.3 38.3 11.0 15 19.7 WNW 28 46 15 25 1002.9 - 0.0
17/01:30pm 44.0 38.9 10.6 14 20.3 NW 28 41 15 22 1003.1 - 0.0
17/01:10pm 41.9 36.9 11.1 16 18.7 WNW 28 46 15 25 1003.5 - 0.0
17/01:00pm 41.7 36.0 11.0 16 18.6 W 32 44 17 24 1003.7 - 0.0
17/12:50pm 42.3 36.9 12.1 17 18.7 NW 32 50 17 27 1003.9 - 0.0
17/12:30pm 42.0 37.0 12.1 17 18.4 WNW 30 46 16 25 1004.1 - 0.0
17/12:02pm 41.8 36.6 13.3 18 17.9 NW 33 52 18 28 1004.6 - 0.0
17/12:00pm 42.0 36.4 13.2 18 18.1 NW 35 52 19 28 1004.6 1003.2 0.0
17/11:47am 42.4 36.0 13.1 18 18.3 NNW 39 59 21 32 1004.9 - 0.0
17/11:30am 41.6 35.6 13.2 18 17.8 NW 37 50 20 27 1005.1 - 0.0
17/11:00am 41.0 34.8 13.7 20 17.2 NNW 39 52 21 28 1005.4 - 0.0
17/10:30am 40.4 35.3 15.8 23 15.9 NW 37 48 20 26 1005.9 - 0.0
17/10:23am 40.4 34.9 15.8 23 15.9 NW 39 48 21 26 1005.8 - 0.0
17/10:19am 40.4 35.2 15.6 23 16.0 NNW 37 69 20 37 1005.9 - 0.0
17/10:13am 39.6 33.6 15.5 24 15.4 NNW 41 48 22 26 1006.0 - 0.0
17/10:10am 39.6 35.5 15.9 25 15.3 NW 32 54 17 29 1006.0 - 0.0
17/10:00am 39.1 33.5 15.4 24 15.1 NNW 39 46 21 25 1006.0 - 0.0
17/09:58am 38.9 33.3 15.5 25 15.0 NNW 39 46 21 25 1006.1 - 0.0
17/09:51am 39.4 34.4 16.0 25 15.1 NW 37 52 20 28 1006.1 - 0.0
17/09:41am 38.6 33.2 15.9 26 14.6 NNW 39 57 21 31 1006.1 - 0.0
17/09:30am 37.9 33.2 15.8 27 14.1 NNW 35 48 19 26 1006.1 - 0.0
17/09:00am 37.4 32.4 14.0 24 14.6 NNW 33 46 18 25 1006.4 1005.0 0.0
17/08:30am 35.3 31.4 13.3 26 13.5 N 26 30 14 16 1006.3 - 0.0
17/08:00am 33.3 28.9 12.8 28 12.4 N 28 33 15 18 1006.5 - 0.0
17/07:30am 33.3 28.8 12.6 28 12.5 N 28 37 15 20 1006.5 - 0.0
17/06:59am 31.6 26.9 11.9 30 11.7 N 28 37 15 20 1006.0 - 0.0
17/06:30am 29.8 27.0 11.3 32 10.8 NNE 17 19 9 10 1005.8 - 0.0
17/06:00am 28.3 25.6 10.4 32 10.2 NNE 15 19 8 10 1005.4 1004.0 0.0
17/05:30am 28.3 24.8 10.2 32 10.3 NNE 19 20 10 11 1005.2 - 0.0
17/05:00am 29.3 25.7 9.7 29 11.1 NNE 19 24 10 13 1005.0 - 0.0
17/04:30am 29.7 26.4 9.6 28 11.4 N 17 22 9 12 1004.9 - 0.0
17/04:00am 29.4 25.9 8.9 27 11.4 NNE 17 19 9 10 1004.7 - 0.0
17/03:30am 30.3 24.9 8.2 25 12.2 NNE 26 32 14 17 1004.3 - 0.0
17/03:00am 30.5 25.8 7.7 24 12.6 NNE 22 30 12 16 1004.2 1002.9 0.0
17/02:30am 31.2 27.0 8.1 23 12.8 NE 20 24 11 13 1004.9 - 0.0
17/02:00am 30.0 26.9 8.8 26 11.8 ENE 15 17 8 9 1005.2 - 0.0
17/01:30am 31.3 28.6 10.4 27 12.1 ENE 15 17 8 9 1005.4 - 0.0
17/01:00am 31.8 29.4 10.2 26 12.5 E 13 17 7 9 1005.7 - 0.0
17/12:30am 32.7 30.4 10.4 25 12.9 E 13 15 7 8 1005.7 - 0.0
17/12:00am 33.1 30.1 10.5 25 13.2 E 17 19 9 10 1006.0 1004.6 0.0
 
Date/Time
EST
Temp
°C
App
Temp
°C
Dew
Point
Rel
Hum
%
Delta-T
°C
Wind Press
QNH
hPa
Press
MSL
hPa
Rain
since 9 am
mm
Dir
 
Spd
km/h
Gust
km/h
Spd
kts
Gust
kts
16/11:30pm 34.8 30.8 9.1 20 14.8 ESE 20 26 11 14 1006.2 - 0.0
16/11:00pm 35.1 30.7 9.1 20 15.0 S 22 30 12 16 1007.1 - 0.0
16/10:42pm 35.6 28.8 7.9 18 15.7 SW 33 52 18 28 1006.8 - 0.0
16/10:35pm 33.8 28.0 7.8 20 14.6 SW 28 41 15 22 1006.6 - 0.0
16/10:30pm 32.1 27.7 6.7 20 13.9 NW 19 22 10 12 1005.6 - 0.0
16/10:00pm 31.9 28.4 7.3 21 13.5 NNE 15 15 8 8 1004.5 - 0.0
16/09:30pm 32.4 29.2 7.0 20 14.0 NNE 13 13 7 7 1004.6 - 0.0
16/09:00pm 34.0 30.8 7.0 18 15.0 NNE 13 15 7 8 1004.5 1003.1 0.0
16/08:30pm 35.8 31.6 5.8 15 16.5 NNE 17 19 9 10 1004.3 - 0.0
16/08:00pm 35.0 32.0 5.8 16 15.9 NNE 11 15 6 8 1004.2 - 0.0
16/07:30pm 36.0 34.1 7.6 17 16.0 N 7 9 4 5 1004.0 - 0.0
16/07:00pm 38.0 35.6 8.5 16 17.0 NNW 11 13 6 7 1003.8 - 0.0
16/06:30pm 40.8 39.3 8.6 14 18.8 WSW 6 9 3 5 1003.5 - 0.0
16/06:00pm 41.0 38.9 6.7 12 19.6 NE 7 11 4 6 1003.4 1002.1 0.0

Other Formats:

Comma delimited format used in spreadsheet applications
http://www.bom.gov.au/fwo/IDQ60801/IDQ60801.94346.axf

JavaScript Object Notation format (JSON) in row-major order
http://www.bom.gov.au/fwo/IDQ60801/IDQ60801.94346.json